createdAt,value
2017-09-22T00:00:04.322Z,99.90
2017-09-22T00:02:31.873Z,99.90
2017-09-22T00:04:59.409Z,99.90
2017-09-22T00:07:27.713Z,99.90
2017-09-22T00:09:55.252Z,99.90
2017-09-22T00:12:23.567Z,99.90
2017-09-22T00:14:51.108Z,99.90
2017-09-22T00:17:18.640Z,99.90
2017-09-22T00:19:46.963Z,99.90
2017-09-22T00:22:14.524Z,99.90
2017-09-22T00:24:42.052Z,99.90
2017-09-22T00:27:09.581Z,99.90
2017-09-22T00:29:37.129Z,99.90
2017-09-22T00:32:04.669Z,99.90
2017-09-22T00:34:32.213Z,99.90
2017-09-22T00:36:59.753Z,99.90
2017-09-22T00:39:27.309Z,99.90
2017-09-22T00:41:54.853Z,99.90
2017-09-22T00:44:22.397Z,99.90
2017-09-22T00:46:49.941Z,99.90
2017-09-22T00:49:17.481Z,99.90
2017-09-22T00:51:45.046Z,99.90
2017-09-22T00:54:12.580Z,99.90
2017-09-22T00:56:40.894Z,99.90
2017-09-22T00:59:08.454Z,99.90
2017-09-22T01:01:35.990Z,99.90
2017-09-22T01:04:04.320Z,99.90
2017-09-22T01:06:31.847Z,99.90
2017-09-22T01:08:59.398Z,99.90
2017-09-22T01:11:26.926Z,99.90
2017-09-22T01:13:55.242Z,99.90
2017-09-22T01:16:22.818Z,99.90
2017-09-22T01:18:50.372Z,99.90
2017-09-22T01:21:17.939Z,99.90
2017-09-22T01:23:45.501Z,99.90
2017-09-22T01:26:13.037Z,99.90
2017-09-22T01:28:40.565Z,99.90
2017-09-22T01:31:08.130Z,99.90
2017-09-22T01:33:35.661Z,99.90
2017-09-22T01:36:03.214Z,99.90
2017-09-22T01:38:30.748Z,99.90
2017-09-22T01:40:59.031Z,99.90
2017-09-22T01:43:26.581Z,99.90
2017-09-22T01:45:54.125Z,99.90
2017-09-22T01:48:22.441Z,99.90
2017-09-22T01:50:49.982Z,99.90
2017-09-22T01:53:17.549Z,99.90
2017-09-22T01:55:45.095Z,99.90
2017-09-22T01:58:12.649Z,99.90
2017-09-22T02:00:40.193Z,99.90
2017-09-22T02:03:08.490Z,99.90
2017-09-22T02:05:36.049Z,99.90
2017-09-22T02:08:03.581Z,99.90
2017-09-22T02:10:31.900Z,99.90
2017-09-22T02:12:59.432Z,99.90
2017-09-22T02:15:26.990Z,99.90
2017-09-22T02:17:55.290Z,99.90
2017-09-22T02:20:22.817Z,99.90
2017-09-22T02:22:51.137Z,99.90
2017-09-22T02:25:18.677Z,99.90
2017-09-22T02:27:46.217Z,99.90
2017-09-22T02:30:14.609Z,99.90
2017-09-22T02:32:42.161Z,99.90
2017-09-22T02:35:09.701Z,99.90
2017-09-22T02:37:37.242Z,99.90
2017-09-22T02:40:04.789Z,99.90
2017-09-22T02:42:32.334Z,99.90
2017-09-22T02:44:59.877Z,99.90
2017-09-22T02:47:27.400Z,99.90
2017-09-22T02:49:55.723Z,99.90
2017-09-22T02:52:23.266Z,99.90
2017-09-22T02:54:50.823Z,99.90
2017-09-22T02:57:18.381Z,99.90
2017-09-22T02:59:45.909Z,99.90
2017-09-22T03:02:14.229Z,99.90
2017-09-22T03:04:41.761Z,99.90
2017-09-22T03:07:09.309Z,99.90
2017-09-22T03:09:37.597Z,99.90
2017-09-22T03:12:05.148Z,99.90
2017-09-22T03:14:32.705Z,99.90
2017-09-22T03:17:00.240Z,99.90
2017-09-22T03:19:27.797Z,99.90
2017-09-22T03:21:55.331Z,99.90
2017-09-22T03:24:22.884Z,99.90
2017-09-22T03:26:50.419Z,99.90
2017-09-22T03:29:17.945Z,99.90
2017-09-22T03:31:45.502Z,99.90
2017-09-22T03:34:13.034Z,99.90
2017-09-22T03:36:40.581Z,99.90
2017-09-22T03:39:08.116Z,99.90
2017-09-22T03:41:35.671Z,99.90
2017-09-22T03:44:03.230Z,99.90
2017-09-22T03:46:30.777Z,99.90
2017-09-22T03:48:58.305Z,99.90
2017-09-22T03:51:26.603Z,99.90
2017-09-22T03:53:54.157Z,99.90
2017-09-22T03:56:21.685Z,99.90
2017-09-22T03:58:50.006Z,99.90
2017-09-22T04:01:17.544Z,99.90
2017-09-22T04:03:45.101Z,99.90
2017-09-22T04:06:12.643Z,99.90
2017-09-22T04:08:40.987Z,99.90
2017-09-22T04:11:08.536Z,99.90
2017-09-22T04:13:36.057Z,99.90
2017-09-22T04:16:03.609Z,99.90
2017-09-22T04:18:31.897Z,99.90
2017-09-22T04:20:59.456Z,99.90
2017-09-22T04:23:26.993Z,99.90
2017-09-22T04:25:55.315Z,99.90
2017-09-22T04:28:22.877Z,99.90
2017-09-22T04:30:50.416Z,99.90
2017-09-22T04:33:17.972Z,99.90
2017-09-22T04:35:46.273Z,99.90
2017-09-22T04:38:13.806Z,99.90
2017-09-22T04:40:41.393Z,99.90
2017-09-22T04:43:08.925Z,99.90
2017-09-22T04:45:36.471Z,99.90
2017-09-22T04:48:05.305Z,99.90
2017-09-22T04:50:32.854Z,99.90
2017-09-22T04:53:00.379Z,99.90
2017-09-22T04:55:28.701Z,99.90
2017-09-22T04:57:57.242Z,99.90
2017-09-22T05:00:25.537Z,99.90
2017-09-22T05:02:53.089Z,99.90
2017-09-22T05:05:21.402Z,99.90
2017-09-22T05:07:48.946Z,99.90
2017-09-22T05:10:16.479Z,99.90
2017-09-22T05:12:44.797Z,99.90
2017-09-22T05:15:12.326Z,99.90
2017-09-22T05:17:40.649Z,99.90
2017-09-22T05:20:08.173Z,99.90
2017-09-22T05:22:35.723Z,99.90
2017-09-22T05:25:03.252Z,99.90
2017-09-22T05:27:30.781Z,99.90
2017-09-22T05:29:58.337Z,99.90
2017-09-22T05:32:25.878Z,99.90
2017-09-22T05:34:53.410Z,99.90
2017-09-22T05:37:21.727Z,99.90
2017-09-22T05:39:49.288Z,99.90
2017-09-22T05:42:16.822Z,99.90
2017-09-22T05:44:44.351Z,99.90
2017-09-22T05:47:11.910Z,99.90
2017-09-22T05:49:39.443Z,99.90
2017-09-22T05:52:06.989Z,99.90
2017-09-22T05:54:34.509Z,99.90
2017-09-22T05:57:02.841Z,99.90
2017-09-22T05:59:30.369Z,99.90
2017-09-22T06:01:57.914Z,99.90
2017-09-22T06:04:25.442Z,99.90
2017-09-22T06:06:53.757Z,99.90
2017-09-22T06:09:21.318Z,99.90
2017-09-22T06:11:48.873Z,99.90
2017-09-22T06:14:16.455Z,99.90
2017-09-22T06:16:43.987Z,99.90
2017-09-22T06:19:11.534Z,99.90
2017-09-22T06:21:39.829Z,99.90
2017-09-22T06:24:10.617Z,99.90
2017-09-22T06:26:39.067Z,99.90
2017-09-22T06:29:06.641Z,99.90
2017-09-22T06:31:34.184Z,99.90
2017-09-22T06:34:01.853Z,99.90
2017-09-22T06:36:29.384Z,99.90
2017-09-22T06:38:57.239Z,99.90
2017-09-22T06:41:25.560Z,99.90
2017-09-22T06:43:53.094Z,99.90
2017-09-22T06:46:20.640Z,99.90
2017-09-22T06:48:48.933Z,99.90
2017-09-22T06:51:16.510Z,99.90
2017-09-22T06:53:44.041Z,99.90
2017-09-22T06:56:12.372Z,99.90
2017-09-22T06:58:39.922Z,99.90
2017-09-22T07:01:07.449Z,99.90
2017-09-22T07:03:35.023Z,99.90
2017-09-22T07:06:02.552Z,99.90
2017-09-22T07:08:30.870Z,99.90
2017-09-22T07:10:58.417Z,99.90
2017-09-22T07:13:26.943Z,99.90
2017-09-22T07:15:54.513Z,99.90
2017-09-22T07:18:23.250Z,99.90
2017-09-22T07:20:50.825Z,99.90
2017-09-22T07:23:18.366Z,99.90
2017-09-22T07:25:45.930Z,99.90
2017-09-22T07:28:13.473Z,99.90
2017-09-22T07:30:41.008Z,99.90
2017-09-22T07:33:09.322Z,99.90
2017-09-22T07:35:36.869Z,99.90
2017-09-22T07:38:04.424Z,99.90
2017-09-22T07:40:31.974Z,99.90
2017-09-22T07:42:59.526Z,99.90
2017-09-22T07:45:27.841Z,99.90
2017-09-22T07:47:55.409Z,99.90
2017-09-22T07:50:22.936Z,99.90
2017-09-22T07:52:50.496Z,99.90
2017-09-22T07:55:18.138Z,99.90
2017-09-22T07:57:46.491Z,99.90
2017-09-22T08:00:14.033Z,99.90
2017-09-22T08:02:41.597Z,99.90
2017-09-22T08:05:09.165Z,99.90
2017-09-22T08:07:36.710Z,99.40
2017-09-22T08:10:04.250Z,89.80
2017-09-22T08:12:31.781Z,80.50
2017-09-22T08:15:00.112Z,70.80
2017-09-22T08:17:27.656Z,70.80
2017-09-22T08:19:55.204Z,66.30
2017-09-22T08:22:22.740Z,63.90
2017-09-22T08:24:51.040Z,59.50
2017-09-22T08:27:18.579Z,59.40
2017-09-22T08:29:46.896Z,67.20
2017-09-22T08:32:14.461Z,67.20
2017-09-22T08:34:41.996Z,73.30
2017-09-22T08:37:09.541Z,74.50
2017-09-22T08:39:37.838Z,74.30
2017-09-22T08:42:05.381Z,75.10
2017-09-22T08:44:32.930Z,69.40
2017-09-22T08:47:01.230Z,59.20
2017-09-22T08:49:28.783Z,59.10
2017-09-22T08:51:56.333Z,59.20
2017-09-22T08:54:24.622Z,57.70
2017-09-22T08:56:52.169Z,57.70
2017-09-22T08:59:20.473Z,54.30
2017-09-22T09:01:48.045Z,54.30
2017-09-22T09:04:15.570Z,52.10
2017-09-22T09:06:43.120Z,54.20
2017-09-22T09:09:11.410Z,55.20
2017-09-22T09:11:38.962Z,55.10
2017-09-22T09:14:06.553Z,49.90
2017-09-22T09:16:34.089Z,49.90
2017-09-22T09:19:01.653Z,47.50
2017-09-22T09:21:29.206Z,48.90
2017-09-22T09:23:56.765Z,50.20
2017-09-22T09:26:24.317Z,50.60
2017-09-22T09:28:51.877Z,48.50
2017-09-22T09:31:19.438Z,48.60
2017-09-22T09:33:46.968Z,45.90
2017-09-22T09:36:14.527Z,46.70
2017-09-22T09:38:42.122Z,45.00
2017-09-22T09:41:09.637Z,48.30
2017-09-22T09:43:37.186Z,47.60
2017-09-22T09:46:05.505Z,47.90
2017-09-22T09:48:33.044Z,47.90
2017-09-22T09:51:00.584Z,46.50
2017-09-22T09:53:28.132Z,44.30
2017-09-22T09:55:55.694Z,42.30
2017-09-22T09:58:23.988Z,42.20
2017-09-22T10:00:51.586Z,42.10
2017-09-22T10:03:19.120Z,42.20
2017-09-22T10:05:46.653Z,44.50
2017-09-22T10:08:14.198Z,40.80
2017-09-22T10:10:41.758Z,43.50
2017-09-22T10:13:09.280Z,41.80
2017-09-22T10:15:36.843Z,42.40
2017-09-22T10:18:04.373Z,43.30
2017-09-22T10:20:32.662Z,39.50
2017-09-22T10:23:00.992Z,39.10
2017-09-22T10:25:28.532Z,39.00
2017-09-22T10:27:56.081Z,38.50
2017-09-22T10:30:23.625Z,40.20
2017-09-22T10:32:51.158Z,39.60
2017-09-22T10:35:18.698Z,42.70
2017-09-22T10:37:46.241Z,41.90
2017-09-22T10:40:13.802Z,42.70
2017-09-22T10:42:41.337Z,40.20
2017-09-22T10:45:08.876Z,39.60
2017-09-22T10:47:37.177Z,41.10
2017-09-22T10:50:04.716Z,41.00
2017-09-22T10:52:32.260Z,42.60
2017-09-22T10:54:59.793Z,44.40
2017-09-22T10:57:27.353Z,46.60
2017-09-22T10:59:54.897Z,44.90
2017-09-22T11:02:22.461Z,45.40
2017-09-22T11:04:50.010Z,43.20
2017-09-22T11:07:18.334Z,44.90
2017-09-22T11:09:45.869Z,44.90
2017-09-22T11:12:13.417Z,46.30
2017-09-22T11:14:41.211Z,46.50
2017-09-22T11:17:08.755Z,46.50
2017-09-22T11:19:37.056Z,48.60
2017-09-22T11:22:04.617Z,48.60
2017-09-22T11:24:32.143Z,46.80
2017-09-22T11:27:00.482Z,48.70
2017-09-22T11:29:28.013Z,48.70
2017-09-22T11:31:55.103Z,47.20
2017-09-22T11:34:22.656Z,48.10
2017-09-22T11:36:50.205Z,47.70
2017-09-22T11:39:17.771Z,48.60
2017-09-22T11:41:45.305Z,47.20
2017-09-22T11:44:12.852Z,47.50
2017-09-22T11:46:40.381Z,49.40
2017-09-22T11:49:07.904Z,49.60
2017-09-22T11:51:35.454Z,49.10
2017-09-22T11:54:02.976Z,49.70
2017-09-22T11:56:31.304Z,50.40
2017-09-22T11:58:58.836Z,50.30
2017-09-22T12:01:26.409Z,49.80
2017-09-22T12:03:53.954Z,49.30
2017-09-22T12:06:23.013Z,48.90
2017-09-22T12:08:50.576Z,48.80
2017-09-22T12:11:18.122Z,50.80
2017-09-22T12:13:45.665Z,51.40
2017-09-22T12:16:13.197Z,49.70
2017-09-22T12:18:40.745Z,50.10
2017-09-22T12:21:08.317Z,49.60
2017-09-22T12:23:35.852Z,50.60
2017-09-22T12:26:03.414Z,49.80
2017-09-22T12:28:30.951Z,50.40
2017-09-22T12:30:58.512Z,50.40
2017-09-22T12:33:26.054Z,50.70
2017-09-22T12:35:53.589Z,51.70
2017-09-22T12:38:21.910Z,51.50
2017-09-22T12:40:49.446Z,51.50
2017-09-22T12:43:17.041Z,50.20
2017-09-22T12:45:44.572Z,54.30
2017-09-22T12:48:12.115Z,50.60
2017-09-22T12:50:39.689Z,52.10
2017-09-22T12:53:07.217Z,51.20
2017-09-22T12:55:34.761Z,52.90
2017-09-22T12:58:02.333Z,50.60
2017-09-22T13:00:29.879Z,50.50
2017-09-22T13:02:57.410Z,51.90
2017-09-22T13:05:25.751Z,52.90
2017-09-22T13:07:53.335Z,52.90
2017-09-22T13:10:20.952Z,52.00
2017-09-22T13:12:48.533Z,52.80
2017-09-22T13:15:16.079Z,52.50
2017-09-22T13:17:43.629Z,51.80
2017-09-22T13:20:11.178Z,52.20
2017-09-22T13:22:38.701Z,53.40
2017-09-22T13:25:07.050Z,52.60
2017-09-22T13:27:34.581Z,52.60
2017-09-22T13:30:02.149Z,53.40
2017-09-22T13:32:29.688Z,53.00
2017-09-22T13:34:57.265Z,52.00
2017-09-22T13:37:24.822Z,52.90
2017-09-22T13:39:52.350Z,52.90
2017-09-22T13:42:20.662Z,52.30
2017-09-22T13:44:48.188Z,52.20
2017-09-22T13:47:15.743Z,53.50
2017-09-22T13:49:43.307Z,55.80
2017-09-22T13:52:10.860Z,54.60
2017-09-22T13:54:38.385Z,54.40
2017-09-22T13:57:05.950Z,54.70
2017-09-22T13:59:33.480Z,54.40
2017-09-22T14:02:01.795Z,54.80
2017-09-22T14:04:29.334Z,54.70
2017-09-22T14:06:56.876Z,55.30
2017-09-22T14:09:25.185Z,54.70
2017-09-22T14:11:52.727Z,54.60
2017-09-22T14:14:20.255Z,54.90
2017-09-22T14:16:47.824Z,55.90
2017-09-22T14:19:15.345Z,57.50
2017-09-22T14:21:42.917Z,56.80
2017-09-22T14:24:10.447Z,56.80
2017-09-22T14:26:38.982Z,56.90
2017-09-22T14:29:07.304Z,57.90
2017-09-22T14:31:34.851Z,57.90
2017-09-22T14:34:02.397Z,57.20
2017-09-22T14:36:30.698Z,59.30
2017-09-22T14:38:58.244Z,59.30
2017-09-22T14:41:25.768Z,60.30
2017-09-22T14:43:54.080Z,59.00
2017-09-22T14:46:21.615Z,59.00
2017-09-22T14:48:49.938Z,60.70
2017-09-22T14:51:17.465Z,60.70
2017-09-22T14:53:45.789Z,60.60
2017-09-22T14:56:13.315Z,60.50
2017-09-22T14:58:40.869Z,62.80
2017-09-22T15:01:09.166Z,61.80
2017-09-22T15:03:36.690Z,61.90
2017-09-22T15:06:05.114Z,64.40
2017-09-22T15:08:32.637Z,63.90
2017-09-22T15:11:00.197Z,64.40
2017-09-22T15:13:27.721Z,65.50
2017-09-22T15:15:56.027Z,65.30
2017-09-22T15:18:23.591Z,65.20
2017-09-22T15:20:51.145Z,64.90
2017-09-22T15:23:18.679Z,67.50
2017-09-22T15:25:47.010Z,67.00
2017-09-22T15:28:14.555Z,67.00
2017-09-22T15:30:42.124Z,67.30
2017-09-22T15:33:09.648Z,67.80
2017-09-22T15:35:37.956Z,71.00
2017-09-22T15:38:05.500Z,70.90
2017-09-22T15:40:33.046Z,70.70
2017-09-22T15:43:00.566Z,73.20
2017-09-22T15:45:28.128Z,73.40
2017-09-22T15:47:55.673Z,74.50
2017-09-22T15:50:23.997Z,76.60
2017-09-22T15:52:51.565Z,76.60
2017-09-22T15:55:19.118Z,78.90
2017-09-22T15:57:46.692Z,81.70
2017-09-22T16:00:14.223Z,82.40
2017-09-22T16:02:41.794Z,81.40
2017-09-22T16:05:09.326Z,83.30
2017-09-22T16:07:36.881Z,81.90
2017-09-22T16:10:04.417Z,87.70
2017-09-22T16:12:32.739Z,87.60
2017-09-22T16:15:00.273Z,87.50
2017-09-22T16:17:28.589Z,82.40
2017-09-22T16:19:56.156Z,82.50
2017-09-22T16:22:23.683Z,84.10
2017-09-22T16:24:51.228Z,88.50
2017-09-22T16:27:19.534Z,87.60
2017-09-22T16:29:47.094Z,87.50
2017-09-22T16:32:14.629Z,89.60
2017-09-22T16:34:42.189Z,89.80
2017-09-22T16:37:09.741Z,91.30
2017-09-22T16:39:37.281Z,93.30
2017-09-22T16:42:05.631Z,96.60
2017-09-22T16:44:33.170Z,96.20
2017-09-22T16:47:00.750Z,99.90
2017-09-22T16:49:28.286Z,99.50
2017-09-22T16:51:55.841Z,99.90
2017-09-22T16:54:23.384Z,99.90
2017-09-22T16:56:51.705Z,99.90
2017-09-22T16:59:19.237Z,99.90
2017-09-22T17:01:46.825Z,99.90
2017-09-22T17:04:14.380Z,99.90
2017-09-22T17:06:41.918Z,99.90
2017-09-22T17:09:09.476Z,99.90
2017-09-22T17:11:37.015Z,99.90
2017-09-22T17:14:04.587Z,99.90
2017-09-22T17:16:32.150Z,99.90
2017-09-22T17:18:59.717Z,99.90
2017-09-22T17:21:27.262Z,99.90
2017-09-22T17:23:55.581Z,99.90
2017-09-22T17:26:23.117Z,99.90
2017-09-22T17:28:50.697Z,99.90
2017-09-22T17:31:18.260Z,99.90
2017-09-22T17:33:45.801Z,99.90
2017-09-22T17:36:13.356Z,99.90
2017-09-22T17:38:40.924Z,99.90
2017-09-22T17:41:08.481Z,99.90
2017-09-22T17:43:36.014Z,99.90
2017-09-22T17:46:04.216Z,99.90
2017-09-22T17:48:31.879Z,99.90
2017-09-22T17:50:59.427Z,99.90
2017-09-22T17:53:26.960Z,99.90
2017-09-22T17:55:55.288Z,99.90
2017-09-22T17:58:22.834Z,99.90
2017-09-22T18:00:50.375Z,99.90
2017-09-22T18:03:17.925Z,99.90
2017-09-22T18:05:45.461Z,99.90
2017-09-22T18:08:13.009Z,99.90
2017-09-22T18:10:40.554Z,99.90
2017-09-22T18:13:08.115Z,99.90
2017-09-22T18:15:35.654Z,99.90
2017-09-22T18:18:03.202Z,99.90
2017-09-22T18:20:30.749Z,99.90
2017-09-22T18:22:58.284Z,99.90
2017-09-22T18:25:25.877Z,99.90
2017-09-22T18:27:53.428Z,99.90
2017-09-22T18:30:20.966Z,99.90
2017-09-22T18:32:49.271Z,99.90
2017-09-22T18:35:16.851Z,99.90
2017-09-22T18:37:44.417Z,99.90
2017-09-22T18:40:11.977Z,99.90
2017-09-22T18:42:39.506Z,99.90
2017-09-22T18:45:07.081Z,99.90
2017-09-22T18:47:34.638Z,99.90
2017-09-22T18:50:02.170Z,99.90
2017-09-22T18:52:30.508Z,99.90
2017-09-22T18:54:58.047Z,99.90
2017-09-22T18:57:25.605Z,99.90
2017-09-22T18:59:53.159Z,99.90
2017-09-22T19:02:20.695Z,99.90
2017-09-22T19:04:48.254Z,99.90
2017-09-22T19:07:16.663Z,99.90
2017-09-22T19:09:44.224Z,99.90
2017-09-22T19:12:11.762Z,99.90
2017-09-22T19:14:39.286Z,99.90
2017-09-22T19:17:06.850Z,99.90
2017-09-22T19:19:35.180Z,99.90
2017-09-22T19:22:02.726Z,99.90
2017-09-22T19:24:30.288Z,99.90
2017-09-22T19:26:57.828Z,99.90
2017-09-22T19:29:25.408Z,99.90
2017-09-22T19:31:52.944Z,99.90
2017-09-22T19:34:21.316Z,99.90
2017-09-22T19:36:49.643Z,99.90
2017-09-22T19:39:17.213Z,99.90
2017-09-22T19:41:44.774Z,99.90
2017-09-22T19:44:12.329Z,99.90
2017-09-22T19:46:39.877Z,99.90
2017-09-22T19:49:07.412Z,99.90
2017-09-22T19:51:34.997Z,99.90
2017-09-22T19:54:02.534Z,99.90
2017-09-22T19:56:30.089Z,99.90
2017-09-22T19:58:57.626Z,99.90
2017-09-22T20:01:25.969Z,99.90
2017-09-22T20:03:53.506Z,99.90
2017-09-22T20:06:21.053Z,99.90
2017-09-22T20:08:48.625Z,99.90
2017-09-22T20:11:16.166Z,99.90
2017-09-22T20:13:43.737Z,99.90
2017-09-22T20:16:11.270Z,99.90
2017-09-22T20:18:39.593Z,99.90
2017-09-22T20:21:07.148Z,99.90
2017-09-22T20:23:34.732Z,99.90
2017-09-22T20:26:02.317Z,99.90
2017-09-22T20:28:30.626Z,99.90
2017-09-22T20:30:58.326Z,99.90
2017-09-22T20:33:25.882Z,99.90
2017-09-22T20:35:53.530Z,99.90
2017-09-22T20:38:21.062Z,99.90
2017-09-22T20:40:48.596Z,99.90
2017-09-22T20:43:16.924Z,99.90
2017-09-22T20:45:44.469Z,99.90
2017-09-22T20:48:12.033Z,99.90
2017-09-22T20:50:39.581Z,99.90
2017-09-22T20:53:07.117Z,99.90
2017-09-22T20:55:35.434Z,99.90
2017-09-22T20:58:02.985Z,99.90
2017-09-22T21:00:30.549Z,99.90
2017-09-22T21:02:58.081Z,99.90
2017-09-22T21:05:26.418Z,99.90
2017-09-22T21:07:53.960Z,99.90
2017-09-22T21:10:21.524Z,99.90
2017-09-22T21:12:49.182Z,99.90
2017-09-22T21:15:16.749Z,99.90
2017-09-22T21:17:44.361Z,99.90
2017-09-22T21:20:12.670Z,99.90
2017-09-22T21:22:40.228Z,99.90
2017-09-22T21:25:07.793Z,99.90
2017-09-22T21:27:35.353Z,99.90
2017-09-22T21:30:02.914Z,99.90
2017-09-22T21:32:32.237Z,99.90
2017-09-22T21:34:59.798Z,99.90
2017-09-22T21:37:27.345Z,99.90
2017-09-22T21:39:54.942Z,99.90
2017-09-22T21:42:23.266Z,99.90
2017-09-22T21:44:50.819Z,99.90
2017-09-22T21:47:18.361Z,99.90
2017-09-22T21:49:46.662Z,99.90
2017-09-22T21:52:14.241Z,99.90
2017-09-22T21:54:42.104Z,99.90
2017-09-22T21:57:09.764Z,99.90
2017-09-22T21:59:37.389Z,99.90
2017-09-22T22:02:05.805Z,99.90
2017-09-22T22:04:38.955Z,99.90
2017-09-22T22:07:13.153Z,99.90
2017-09-22T22:09:40.748Z,99.90
2017-09-22T22:12:08.354Z,99.90
2017-09-22T22:14:35.932Z,99.90
2017-09-22T22:17:03.541Z,99.90
2017-09-22T22:19:31.222Z,99.90
2017-09-22T22:21:58.816Z,99.90
2017-09-22T22:24:26.406Z,99.90
2017-09-22T22:26:54.737Z,99.90
2017-09-22T22:29:22.345Z,99.90
2017-09-22T22:31:50.713Z,99.90
2017-09-22T22:34:19.090Z,99.90
2017-09-22T22:50:09.784Z,99.90
2017-09-22T22:52:38.125Z,99.90
2017-09-22T22:55:05.712Z,99.90
2017-09-22T22:57:33.302Z,99.90
2017-09-22T23:00:00.896Z,99.90
2017-09-22T23:02:28.493Z,99.90
2017-09-22T23:04:56.083Z,99.90
2017-09-22T23:07:23.700Z,99.90
2017-09-22T23:09:51.285Z,99.90
2017-09-22T23:12:19.669Z,99.90
2017-09-22T23:14:48.034Z,99.90
2017-09-22T23:17:15.650Z,99.90
2017-09-22T23:19:43.336Z,99.90
2017-09-22T23:22:10.949Z,99.90
2017-09-22T23:24:38.552Z,99.90
2017-09-22T23:27:06.149Z,99.90
2017-09-22T23:29:34.532Z,99.90
2017-09-22T23:32:02.912Z,99.90
2017-09-22T23:34:31.295Z,99.90
2017-09-22T23:36:59.707Z,99.90
2017-09-22T23:39:27.281Z,99.90
2017-09-22T23:41:54.887Z,99.90
2017-09-22T23:44:23.241Z,99.90
2017-09-22T23:46:50.845Z,99.90
2017-09-22T23:49:18.427Z,99.90
2017-09-22T23:51:46.035Z,99.90
2017-09-22T23:54:13.625Z,99.90
2017-09-22T23:56:41.235Z,99.90
2017-09-22T23:59:08.825Z,99.90
